Time;durP1;ratioP1;P1;durP2;ratioP2;P2;SDS_P1;SDS_P2;PMS_P1;PMS_P2;Temp;Humidity;BMP_temperature;BMP_pressure;BME280_temperature;BME280_humidity;BME280_pressure;Samples;Min_cycle;Max_cycle;Signal;HPM_P1;HPM_P2
2024/03/22 00:01:41;;;;;;;24.35;12.98;;;11.20;99.90;;;;;;6167701;28;20054;-85
2024/03/22 00:04:41;;;;;;;23.35;12.63;;;11.20;99.90;;;;;;6191419;28;20050;-86
2024/03/22 00:07:42;;;;;;;22.60;12.18;;;11.10;99.90;;;;;;6168966;28;20062;-84
2024/03/22 00:10:43;;;;;;;23.27;13.07;;;11.10;99.90;;;;;;6191017;28;20093;-86
2024/03/22 00:13:44;;;;;;;24.95;13.45;;;11.10;99.90;;;;;;6195036;28;20538;-86
2024/03/22 00:16:44;;;;;;;23.15;13.23;;;11.00;99.90;;;;;;6168582;28;20054;-86
2024/03/22 00:19:45;;;;;;;23.95;12.90;;;11.00;99.90;;;;;;6192350;28;20057;-86
2024/03/22 00:22:46;;;;;;;22.45;12.45;;;11.00;99.90;;;;;;6186160;28;20046;-86
2024/03/22 00:25:46;;;;;;;24.80;13.57;;;11.00;99.90;;;;;;6190938;28;20056;-86
2024/03/22 00:28:47;;;;;;;24.05;13.10;;;11.10;99.90;;;;;;6182555;28;20050;-87
2024/03/22 00:31:48;;;;;;;25.48;13.98;;;11.00;99.90;;;;;;6185074;28;20165;-85
2024/03/22 00:34:49;;;;;;;26.92;13.38;;;11.00;99.90;;;;;;6207757;28;20096;-87
2024/03/22 00:37:50;;;;;;;21.60;13.02;;;11.00;99.90;;;;;;6185595;28;20050;-87
2024/03/22 00:40:51;;;;;;;28.00;14.73;;;11.00;99.90;;;;;;6206976;28;20065;-86
2024/03/22 00:43:52;;;;;;;25.05;13.10;;;10.90;99.90;;;;;;6182459;28;20064;-87
2024/03/22 00:46:52;;;;;;;23.48;13.27;;;10.90;99.90;;;;;;6168658;28;20478;-86
2024/03/22 00:49:53;;;;;;;24.73;13.65;;;10.80;99.90;;;;;;6191134;28;20061;-88
2024/03/22 00:52:55;;;;;;;28.90;14.98;;;10.80;99.90;;;;;;6185504;28;20053;-87
2024/03/22 00:55:58;;;;;;;24.17;13.80;;;10.80;99.90;;;;;;6193053;28;20111;-86
2024/03/22 00:58:59;;;;;;;24.35;14.13;;;10.70;99.90;;;;;;6189344;28;20060;-86
2024/03/22 01:02:00;;;;;;;24.38;14.20;;;10.70;99.90;;;;;;6169960;28;20086;-87
2024/03/22 01:05:01;;;;;;;26.48;14.27;;;10.70;99.90;;;;;;6214121;28;20110;-86
2024/03/22 01:08:02;;;;;;;29.10;15.63;;;10.60;99.90;;;;;;6212643;28;20054;-86
2024/03/22 01:11:03;;;;;;;27.67;15.13;;;10.60;99.90;;;;;;6231394;28;20050;-86
2024/03/22 01:14:04;;;;;;;24.38;14.40;;;10.60;99.90;;;;;;6207827;28;20050;-86
2024/03/22 01:17:04;;;;;;;26.75;13.95;;;10.60;99.90;;;;;;6195185;28;20054;-86
2024/03/22 01:20:06;;;;;;;26.50;14.52;;;10.60;99.90;;;;;;6191806;28;20065;-86
2024/03/22 01:23:06;;;;;;;30.10;14.70;;;10.60;99.90;;;;;;6173309;28;20050;-88
2024/03/22 01:26:07;;;;;;;27.63;14.20;;;10.60;99.90;;;;;;6211001;28;20053;-88
2024/03/22 01:29:08;;;;;;;24.55;13.57;;;10.50;99.90;;;;;;6181325;28;20054;-86
2024/03/22 01:32:08;;;;;;;23.88;13.38;;;10.50;99.90;;;;;;6171718;28;20065;-87
2024/03/22 01:35:09;;;;;;;24.80;12.82;;;10.50;99.90;;;;;;6194912;28;20046;-88
2024/03/22 01:38:10;;;;;;;26.00;12.93;;;10.50;99.90;;;;;;6187460;28;20076;-85
2024/03/22 01:41:10;;;;;;;23.20;12.65;;;10.50;99.90;;;;;;6210615;28;20049;-85
2024/03/22 01:44:13;;;;;;;20.65;11.98;;;10.50;99.90;;;;;;6176740;28;20057;-87
2024/03/22 01:47:14;;;;;;;23.25;12.38;;;10.50;99.90;;;;;;6170473;28;20516;-85
2024/03/22 01:50:15;;;;;;;21.08;11.25;;;10.40;99.90;;;;;;6194231;28;20042;-86
2024/03/22 01:53:15;;;;;;;19.80;10.43;;;10.50;99.90;;;;;;6187269;28;20406;-86
2024/03/22 01:56:16;;;;;;;17.30;9.23;;;10.40;99.90;;;;;;6210069;28;20054;-86
2024/03/22 01:59:17;;;;;;;18.05;9.45;;;10.40;99.90;;;;;;6193141;28;20141;-85
2024/03/22 02:02:18;;;;;;;18.63;10.25;;;10.40;99.90;;;;;;6170550;28;20054;-86
2024/03/22 02:05:20;;;;;;;17.38;9.77;;;10.40;99.90;;;;;;6209215;28;20057;-86
2024/03/22 02:08:20;;;;;;;17.92;9.70;;;10.40;99.90;;;;;;6186383;28;20387;-85
2024/03/22 02:11:21;;;;;;;17.33;9.93;;;10.30;99.90;;;;;;6208439;28;20097;-84
2024/03/22 02:14:22;;;;;;;17.15;9.57;;;10.30;99.90;;;;;;6188324;28;20544;-86
2024/03/22 02:17:23;;;;;;;17.75;9.55;;;10.30;99.90;;;;;;6186356;28;20132;-87
2024/03/22 02:20:24;;;;;;;16.55;9.77;;;10.30;99.90;;;;;;6209318;28;20054;-85
2024/03/22 02:23:25;;;;;;;18.70;9.73;;;10.30;99.90;;;;;;6171140;28;20050;-86
2024/03/22 02:26:26;;;;;;;19.60;9.45;;;10.30;99.90;;;;;;6209407;28;20050;-86
2024/03/22 02:29:27;;;;;;;18.10;9.77;;;10.20;99.70;;;;;;6180570;28;20046;-85
2024/03/22 02:32:27;;;;;;;17.77;9.73;;;10.30;99.20;;;;;;6168965;28;20376;-87
2024/03/22 02:35:28;;;;;;;15.50;9.82;;;10.30;98.40;;;;;;6209778;28;20053;-86
2024/03/22 02:38:29;;;;;;;16.80;9.80;;;10.30;99.20;;;;;;6185747;28;20062;-85
2024/03/22 02:41:29;;;;;;;17.48;9.38;;;10.30;98.50;;;;;;6191892;28;20046;-85
2024/03/22 02:44:30;;;;;;;17.08;9.15;;;10.20;97.70;;;;;;6164761;28;20053;-84
2024/03/22 02:47:30;;;;;;;16.25;9.30;;;10.30;96.40;;;;;;6185319;28;20065;-85
2024/03/22 02:50:31;;;;;;;16.65;9.70;;;10.30;96.50;;;;;;6193156;28;20046;-86
2024/03/22 02:53:32;;;;;;;16.67;9.40;;;10.20;94.10;;;;;;6169554;28;20541;-84
2024/03/22 02:56:33;;;;;;;17.58;9.13;;;10.20;95.60;;;;;;6208358;28;20061;-85
2024/03/22 02:59:33;;;;;;;16.13;8.93;;;10.10;96.20;;;;;;6180736;28;20053;-86
2024/03/22 03:02:34;;;;;;;18.08;9.38;;;10.10;95.90;;;;;;6185565;28;20478;-85
2024/03/22 03:05:34;;;;;;;18.23;9.55;;;10.10;96.70;;;;;;6208247;28;20060;-87
2024/03/22 03:08:35;;;;;;;18.17;8.90;;;10.20;96.90;;;;;;6185277;28;20058;-85
2024/03/22 03:11:36;;;;;;;14.23;8.68;;;10.20;93.80;;;;;;6190704;28;20057;-85
2024/03/22 03:14:37;;;;;;;14.30;7.95;;;10.20;91.20;;;;;;6180679;28;20139;-85
2024/03/22 03:17:37;;;;;;;14.63;8.23;;;10.30;82.80;;;;;;6168383;28;20050;-84
2024/03/22 03:20:38;;;;;;;15.40;7.80;;;10.40;83.40;;;;;;6191260;28;20081;-85
2024/03/22 03:23:38;;;;;;;11.45;7.00;;;10.40;75.10;;;;;;6184728;28;20536;-85
2024/03/22 03:26:39;;;;;;;12.85;6.63;;;10.50;68.70;;;;;;6191592;28;20065;-85
2024/03/22 03:29:40;;;;;;;12.45;6.45;;;10.50;45.20;;;;;;6189571;28;20137;-85
2024/03/22 03:32:41;;;;;;;11.02;6.25;;;10.50;38.80;;;;;;6168282;28;20498;-86
2024/03/22 03:35:41;;;;;;;12.15;6.22;;;10.60;32.20;;;;;;6191159;28;20054;-85
2024/03/22 03:38:42;;;;;;;10.73;6.03;;;10.60;32.00;;;;;;6184619;28;20058;-85
2024/03/22 03:41:42;;;;;;;11.45;6.30;;;10.60;33.80;;;;;;6207324;28;20067;-86
2024/03/22 03:44:43;;;;;;;12.05;5.97;;;10.60;27.80;;;;;;6182378;28;20054;-85
2024/03/22 03:47:44;;;;;;;11.43;6.28;;;10.60;35.20;;;;;;6168284;28;20065;-85
2024/03/22 03:50:45;;;;;;;11.32;6.03;;;10.70;32.00;;;;;;6191109;28;20100;-84
2024/03/22 03:53:46;;;;;;;10.65;5.95;;;10.70;35.80;;;;;;6184266;28;20599;-85
2024/03/22 03:56:47;;;;;;;9.55;6.22;;;10.70;38.30;;;;;;6207528;28;20052;-85
2024/03/22 03:59:47;;;;;;;12.13;6.05;;;10.80;42.30;;;;;;6189151;28;20524;-84
2024/03/22 04:02:48;;;;;;;11.02;6.47;;;10.80;41.30;;;;;;6183955;28;20046;-84
2024/03/22 04:05:49;;;;;;;11.20;5.88;;;10.80;43.60;;;;;;6206397;28;20057;-85
2024/03/22 04:08:50;;;;;;;10.82;6.32;;;10.80;47.90;;;;;;6183613;28;20462;-83
2024/03/22 04:11:50;;;;;;;12.02;6.28;;;10.80;46.30;;;;;;6206543;28;20057;-85
2024/03/22 04:14:51;;;;;;;12.98;6.07;;;10.80;43.80;;;;;;6172872;28;20093;-84
2024/03/22 04:17:53;;;;;;;9.77;5.63;;;10.80;40.70;;;;;;6190193;28;20073;-85
2024/03/22 04:20:53;;;;;;;12.05;5.88;;;10.80;40.90;;;;;;6167285;28;20127;-83
2024/03/22 04:23:54;;;;;;;10.90;5.80;;;10.70;45.30;;;;;;6189782;28;20050;-84
2024/03/22 04:26:55;;;;;;;11.40;5.97;;;10.70;37.00;;;;;;6184189;28;20144;-84
2024/03/22 04:29:56;;;;;;;11.00;6.10;;;10.70;42.60;;;;;;6184643;28;20058;-84
2024/03/22 04:32:56;;;;;;;12.35;5.68;;;10.60;44.50;;;;;;6183241;28;20421;-84
2024/03/22 04:35:57;;;;;;;12.32;5.82;;;10.60;44.80;;;;;;6206233;28;20103;-84
2024/03/22 04:38:58;;;;;;;12.50;5.75;;;10.60;38.60;;;;;;6183732;28;20092;-85
2024/03/22 04:41:59;;;;;;;10.05;6.18;;;10.60;41.80;;;;;;6190528;28;20050;-85
2024/03/22 04:45:00;;;;;;;11.00;5.32;;;10.60;42.50;;;;;;6172849;28;20133;-85
2024/03/22 04:48:01;;;;;;;11.35;5.53;;;10.70;43.80;;;;;;6190655;28;20112;-84
2024/03/22 04:51:02;;;;;;;12.15;5.93;;;10.70;44.30;;;;;;6183691;28;20145;-85
2024/03/22 04:54:03;;;;;;;11.43;6.38;;;10.70;42.50;;;;;;6190848;28;20493;-86
2024/03/22 04:57:04;;;;;;;12.32;5.38;;;10.70;47.50;;;;;;6171880;28;20129;-84
2024/03/22 05:00:07;;;;;;;10.77;5.15;;;10.70;47.20;;;;;;6192350;28;20479;-85
2024/03/22 05:03:08;;;;;;;11.73;5.95;;;10.70;48.70;;;;;;6172991;28;20397;-87
2024/03/22 05:06:09;;;;;;;11.90;5.70;;;10.70;49.80;;;;;;6212183;28;20057;-85
2024/03/22 05:09:10;;;;;;;10.70;5.53;;;10.70;48.80;;;;;;6174267;28;20067;-86
2024/03/22 05:12:10;;;;;;;11.05;5.38;;;10.70;50.70;;;;;;6196758;28;20604;-87
2024/03/22 05:15:11;;;;;;;9.60;5.15;;;10.60;57.10;;;;;;6170440;28;20066;-88
2024/03/22 05:18:12;;;;;;;11.90;5.57;;;10.70;61.30;;;;;;6212372;28;20473;-87
2024/03/22 05:21:13;;;;;;;10.52;5.55;;;10.70;62.30;;;;;;6172167;28;20054;-85
2024/03/22 05:24:13;;;;;;;9.73;5.30;;;10.70;66.60;;;;;;6194269;28;20050;-86
2024/03/22 05:27:14;;;;;;;10.13;5.43;;;10.70;67.30;;;;;;6187376;28;20173;-86
2024/03/22 05:30:15;;;;;;;13.20;5.60;;;10.80;69.10;;;;;;6205067;28;20494;-87
2024/03/22 05:33:15;;;;;;;10.90;5.38;;;10.80;72.50;;;;;;6171587;28;20058;-87
2024/03/22 05:36:16;;;;;;;8.90;5.35;;;10.80;72.50;;;;;;6210653;28;20050;-86
2024/03/22 05:39:17;;;;;;;10.68;4.88;;;10.80;74.60;;;;;;6170950;28;20085;-84
2024/03/22 05:42:17;;;;;;;13.38;5.30;;;10.80;75.60;;;;;;6210352;28;20061;-86
2024/03/22 05:45:18;;;;;;;11.52;5.55;;;10.80;79.00;;;;;;6168638;28;20047;-85
2024/03/22 05:48:18;;;;;;;11.75;4.53;;;10.80;78.30;;;;;;6193710;28;20100;-84
2024/03/22 05:51:19;;;;;;;10.40;5.32;;;10.90;77.00;;;;;;6171152;28;20058;-85
2024/03/22 05:54:20;;;;;;;9.90;5.18;;;10.80;76.50;;;;;;6209208;28;20057;-84
2024/03/22 05:57:20;;;;;;;10.95;4.78;;;10.90;79.80;;;;;;6186326;28;20089;-85
2024/03/22 06:00:21;;;;;;;10.10;5.20;;;10.90;81.10;;;;;;6204012;28;20058;-86
2024/03/22 06:03:22;;;;;;;10.77;4.90;;;10.90;83.70;;;;;;6186403;28;20061;-86
2024/03/22 06:06:25;;;;;;;11.73;4.80;;;10.90;84.00;;;;;;6192925;28;20066;-85
2024/03/22 06:09:34;;;;;;;11.25;5.10;;;10.80;85.70;;;;;;6174232;28;20060;-86
2024/03/22 06:12:35;;;;;;;9.30;4.85;;;10.90;88.20;;;;;;6194533;28;20053;-86
2024/03/22 06:15:36;;;;;;;9.95;5.22;;;10.90;90.80;;;;;;6159264;28;20490;-86
2024/03/22 06:18:37;;;;;;;11.30;5.43;;;10.90;91.20;;;;;;6210424;28;20138;-86
2024/03/22 06:21:38;;;;;;;10.77;5.22;;;10.80;90.50;;;;;;6186096;28;20042;-86
2024/03/22 06:24:39;;;;;;;10.18;5.07;;;10.90;90.10;;;;;;6209479;28;20195;-88
2024/03/22 06:27:40;;;;;;;9.25;5.15;;;10.90;90.70;;;;;;6170566;28;20054;-87
2024/03/22 06:30:41;;;;;;;11.00;5.05;;;10.90;91.80;;;;;;6192559;28;20637;-88
2024/03/22 06:33:42;;;;;;;10.50;5.22;;;10.80;92.10;;;;;;6170340;28;20094;-87
2024/03/22 06:36:43;;;;;;;9.30;4.80;;;10.90;91.80;;;;;;6193759;28;20154;-89
2024/03/22 06:39:44;;;;;;;10.27;5.20;;;10.90;92.60;;;;;;6186889;28;20505;-86
2024/03/22 06:42:45;;;;;;;12.27;5.40;;;11.00;92.40;;;;;;6209203;28;20586;-87
2024/03/22 06:45:46;;;;;;;10.23;4.93;;;11.00;93.60;;;;;;6180636;28;20133;-88
2024/03/22 06:48:46;;;;;;;10.23;5.05;;;10.90;94.70;;;;;;6209722;28;20096;-89
2024/03/22 06:51:47;;;;;;;11.52;4.78;;;10.90;95.40;;;;;;6170440;28;20386;-88
2024/03/22 06:54:48;;;;;;;13.38;5.10;;;10.90;96.10;;;;;;6193102;28;20061;-89
2024/03/22 06:57:49;;;;;;;10.55;5.22;;;10.90;96.60;;;;;;6186163;28;20088;-88
2024/03/22 07:00:50;;;;;;;11.60;5.00;;;11.00;97.10;;;;;;6180022;28;20053;-87
2024/03/22 07:03:52;;;;;;;11.02;5.45;;;11.00;97.90;;;;;;6161716;28;20125;-87
2024/03/22 07:06:53;;;;;;;11.85;5.88;;;11.10;98.30;;;;;;6192603;28;20064;-88
2024/03/22 07:09:54;;;;;;;11.10;5.10;;;11.00;98.80;;;;;;6177552;28;20097;-87
2024/03/22 07:12:56;;;;;;;14.98;6.03;;;11.10;99.30;;;;;;6187050;28;20509;-88
2024/03/22 07:15:57;;;;;;;13.90;5.78;;;11.00;99.60;;;;;;6190722;28;20129;-87
2024/03/22 07:18:58;;;;;;;11.93;5.57;;;11.10;98.70;;;;;;6144484;28;20109;-87
2024/03/22 07:21:59;;;;;;;13.18;5.30;;;11.10;98.30;;;;;;6191932;28;20049;-87
2024/03/22 07:25:00;;;;;;;23.67;5.40;;;11.10;98.60;;;;;;6169522;28;20482;-87
2024/03/22 07:28:00;;;;;;;25.58;5.18;;;11.10;99.10;;;;;;6189305;28;20057;-85
2024/03/22 07:31:03;;;;;;;8.80;4.50;;;11.20;98.80;;;;;;6181441;28;20058;-91
2024/03/22 07:34:04;;;;;;;11.25;4.88;;;11.30;98.90;;;;;;6164388;28;20057;-89
2024/03/22 07:37:05;;;;;;;10.23;4.68;;;11.40;98.30;;;;;;6191736;28;20054;-88
2024/03/22 07:40:06;;;;;;;10.55;4.60;;;11.40;97.50;;;;;;6185133;28;20062;-86
2024/03/22 07:43:08;;;;;;;8.60;4.32;;;11.40;97.40;;;;;;6193514;28;20057;-89
2024/03/22 07:46:09;;;;;;;14.00;4.75;;;11.50;97.40;;;;;;6185534;28;20121;-88
2024/03/22 07:49:10;;;;;;;10.63;4.78;;;11.50;98.80;;;;;;6193164;28;20081;-88
2024/03/22 07:52:11;;;;;;;14.18;4.93;;;11.50;99.10;;;;;;6186246;28;20094;-88
2024/03/22 07:55:12;;;;;;;8.32;4.20;;;11.50;99.90;;;;;;6192766;28;20068;-89
2024/03/22 07:58:12;;;;;;;11.05;4.50;;;11.60;99.30;;;;;;6168584;28;20048;-87
2024/03/22 08:01:13;;;;;;;11.15;4.85;;;11.60;98.40;;;;;;6195116;28;20096;-86
2024/03/22 08:04:14;;;;;;;40.95;6.53;;;11.70;98.70;;;;;;6171734;28;20054;-85
2024/03/22 08:07:15;;;;;;;8.00;3.83;;;11.80;98.30;;;;;;6217017;28;20132;-88
2024/03/22 08:10:17;;;;;;;10.88;4.35;;;11.70;98.60;;;;;;6205849;28;20054;-88
2024/03/22 08:13:18;;;;;;;12.80;4.18;;;11.70;98.40;;;;;;6179899;28;20404;-83
2024/03/22 08:16:19;;;;;;;9.20;4.30;;;11.80;98.40;;;;;;6203306;28;20054;-89
2024/03/22 08:19:20;;;;;;;11.82;4.30;;;11.80;99.80;;;;;;6171322;28;20058;-87
2024/03/22 08:22:21;;;;;;;10.27;4.35;;;11.70;99.20;;;;;;6208277;28;20054;-82
2024/03/22 08:25:23;;;;;;;8.85;4.28;;;11.80;98.10;;;;;;6167226;28;20051;-86
2024/03/22 08:28:23;;;;;;;11.73;4.28;;;11.80;98.70;;;;;;6181341;28;20061;-86
2024/03/22 08:31:27;;;;;;;11.45;4.60;;;11.80;98.10;;;;;;6171613;28;20050;-92
2024/03/22 08:34:28;;;;;;;12.45;4.20;;;11.90;98.40;;;;;;6211135;28;20434;-85
2024/03/22 08:37:29;;;;;;;10.23;3.80;;;12.10;98.20;;;;;;6171229;28;20054;-84
2024/03/22 08:40:30;;;;;;;11.43;4.45;;;12.10;97.60;;;;;;6194139;28;20062;-83
2024/03/22 08:43:30;;;;;;;32.28;5.30;;;12.10;99.00;;;;;;6175362;28;20180;-80
2024/03/22 08:46:32;;;;;;;27.27;4.70;;;12.20;99.90;;;;;;6194704;28;20080;-84
2024/03/22 08:49:33;;;;;;;12.23;4.00;;;12.40;98.10;;;;;;6147248;28;20053;-83
2024/03/22 08:52:35;;;;;;;8.75;3.63;;;12.50;96.20;;;;;;6209292;28;20085;-82
2024/03/22 08:55:36;;;;;;;7.47;3.80;;;12.50;95.90;;;;;;6189446;28;20050;-78
2024/03/22 08:58:37;;;;;;;8.43;3.80;;;12.50;95.60;;;;;;6203732;28;20092;-82
2024/03/22 09:01:37;;;;;;;8.02;4.10;;;12.50;94.90;;;;;;6170677;28;20526;-83
2024/03/22 09:04:38;;;;;;;7.63;3.72;;;12.40;96.80;;;;;;6195900;28;20050;-85
2024/03/22 09:07:39;;;;;;;10.98;4.10;;;12.30;97.20;;;;;;6189152;28;20116;-82
2024/03/22 09:10:39;;;;;;;11.30;4.15;;;12.30;98.00;;;;;;6196191;28;20054;-89
2024/03/22 09:13:40;;;;;;;9.13;3.88;;;12.40;99.80;;;;;;6204949;28;20043;-80
2024/03/22 09:16:41;;;;;;;7.80;3.80;;;12.50;98.60;;;;;;6192940;28;20046;-82
2024/03/22 09:19:42;;;;;;;7.90;3.70;;;12.70;98.20;;;;;;6209620;28;20058;-79
2024/03/22 09:22:42;;;;;;;7.82;3.65;;;12.80;96.70;;;;;;6171649;28;20109;-82
2024/03/22 09:25:43;;;;;;;9.70;3.40;;;13.00;95.00;;;;;;6192567;28;20089;-83
2024/03/22 09:28:45;;;;;;;8.00;3.42;;;13.30;96.00;;;;;;6188437;28;20072;-84
2024/03/22 09:31:46;;;;;;;7.60;3.33;;;13.50;89.10;;;;;;6221200;28;20058;-95
2024/03/22 09:34:46;;;;;;;7.72;3.15;;;13.50;83.80;;;;;;6174669;28;20449;-92
2024/03/22 09:37:47;;;;;;;6.70;2.85;;;13.50;91.20;;;;;;6197457;28;20104;-87
2024/03/22 09:40:48;;;;;;;9.13;3.10;;;13.40;88.40;;;;;;6178962;28;20062;-90
2024/03/22 09:43:50;;;;;;;7.57;3.20;;;13.40;84.40;;;;;;6191391;28;20056;-90
2024/03/22 09:46:51;;;;;;;5.13;2.72;;;13.30;87.20;;;;;;6172704;28;20215;-90
2024/03/22 09:49:51;;;;;;;6.85;3.15;;;13.20;87.30;;;;;;6192385;28;20054;-92
2024/03/22 09:52:52;;;;;;;5.80;2.92;;;13.10;91.80;;;;;;6169101;28;20047;-94
2024/03/22 09:55:57;;;;;;;6.50;2.83;;;13.10;92.20;;;;;;6196869;28;20499;-87
2024/03/22 09:58:58;;;;;;;5.82;2.90;;;13.20;92.60;;;;;;6184028;28;20052;-85
2024/03/22 10:02:00;;;;;;;4.40;2.70;;;13.30;91.20;;;;;;6194851;28;20061;-82
2024/03/22 10:05:02;;;;;;;5.55;2.75;;;13.30;91.90;;;;;;6170469;28;20050;-80
2024/03/22 10:08:02;;;;;;;7.90;3.00;;;13.20;92.50;;;;;;6209355;28;20103;-81
2024/03/22 10:11:03;;;;;;;8.32;3.20;;;13.20;93.00;;;;;;6187614;28;20520;-81
2024/03/22 10:14:04;;;;;;;6.20;3.40;;;13.30;93.70;;;;;;6181222;28;20096;-81
2024/03/22 10:17:05;;;;;;;8.32;3.22;;;13.40;92.10;;;;;;6215130;28;20046;-81
2024/03/22 10:20:13;;;;;;;6.30;2.75;;;13.40;91.50;;;;;;6192548;28;20454;-83
2024/03/22 10:23:14;;;;;;;7.35;3.33;;;13.50;89.10;;;;;;6178048;28;20060;-89
2024/03/22 10:26:15;;;;;;;8.00;3.13;;;13.50;90.70;;;;;;6216170;28;20061;-85
2024/03/22 10:29:16;;;;;;;5.88;3.33;;;13.50;92.40;;;;;;6192140;28;20057;-84
2024/03/22 10:32:17;;;;;;;8.13;3.38;;;13.40;91.90;;;;;;6186826;28;20117;-80
2024/03/22 10:35:18;;;;;;;6.10;3.17;;;13.40;93.50;;;;;;6192384;28;20383;-81
2024/03/22 10:38:19;;;;;;;8.32;3.17;;;13.40;93.90;;;;;;6169396;28;20378;-81
2024/03/22 10:41:19;;;;;;;8.05;3.40;;;13.40;94.10;;;;;;6208523;28;20060;-81
2024/03/22 10:44:20;;;;;;;7.80;3.80;;;13.50;94.80;;;;;;6192117;28;20062;-81
2024/03/22 10:47:21;;;;;;;7.45;3.38;;;13.60;94.00;;;;;;6184711;28;20057;-80
2024/03/22 10:50:23;;;;;;;7.75;3.17;;;13.60;93.20;;;;;;6207445;28;20062;-81
2024/03/22 10:53:24;;;;;;;6.32;3.72;;;13.60;93.00;;;;;;6183840;28;20069;-81
2024/03/22 10:56:25;;;;;;;10.52;4.20;;;13.70;92.50;;;;;;6207107;28;20045;-82
2024/03/22 10:59:25;;;;;;;5.93;3.17;;;13.70;92.90;;;;;;6182041;28;20446;-81
2024/03/22 11:02:26;;;;;;;7.68;3.50;;;13.60;94.00;;;;;;6184169;28;20054;-81
2024/03/22 11:05:27;;;;;;;12.90;4.20;;;13.50;95.10;;;;;;6207841;28;20088;-80
2024/03/22 11:08:28;;;;;;;7.68;3.70;;;13.40;96.50;;;;;;6184764;28;20073;-81
2024/03/22 11:11:31;;;;;;;8.10;3.95;;;13.40;97.20;;;;;;6206433;28;20057;-81
2024/03/22 11:14:31;;;;;;;6.53;3.25;;;13.20;99.90;;;;;;6191672;28;20076;-83
2024/03/22 11:17:32;;;;;;;8.55;3.40;;;13.10;99.90;;;;;;6168724;28;20054;-85
2024/03/22 11:20:33;;;;;;;8.10;3.15;;;13.10;99.90;;;;;;6209888;28;20516;-89
2024/03/22 11:23:34;;;;;;;7.80;2.58;;;13.10;99.90;;;;;;6186341;28;20050;-92
2024/03/22 11:26:35;;;;;;;8.88;3.50;;;13.10;99.90;;;;;;6192846;28;20085;-89
2024/03/22 11:29:38;;;;;;;9.90;3.42;;;13.10;99.90;;;;;;6178511;28;20063;-87
2024/03/22 11:32:43;;;;;;;8.25;3.13;;;13.10;99.90;;;;;;6170536;28;20500;-87
2024/03/22 11:35:44;;;;;;;10.40;3.05;;;13.00;99.90;;;;;;6197762;28;20076;-93
2024/03/22 11:38:45;;;;;;;10.88;3.20;;;12.90;99.60;;;;;;6180230;28;20058;-84
2024/03/22 11:41:48;;;;;;;12.75;3.50;;;12.80;99.90;;;;;;6196770;28;20077;-88
2024/03/22 11:44:49;;;;;;;8.15;2.90;;;12.80;99.90;;;;;;6177821;28;20079;-95
2024/03/22 11:47:50;;;;;;;11.85;4.47;;;12.80;99.90;;;;;;6184136;28;20149;-82
2024/03/22 11:50:51;;;;;;;9.40;3.13;;;12.90;99.90;;;;;;6190179;28;20058;-79
2024/03/22 11:53:53;;;;;;;12.43;4.72;;;12.80;99.90;;;;;;6182677;28;20383;-79
2024/03/22 11:56:54;;;;;;;12.45;3.50;;;12.70;99.90;;;;;;6206416;28;20050;-79
2024/03/22 11:59:54;;;;;;;11.98;2.80;;;12.50;99.90;;;;;;6177620;28;20056;-81
2024/03/22 12:02:55;;;;;;;12.65;2.85;;;12.20;97.60;;;;;;6189822;28;20058;-81
2024/03/22 12:05:56;;;;;;;11.38;2.70;;;12.00;98.60;;;;;;6182535;28;20064;-81
2024/03/22 12:08:56;;;;;;;10.13;2.67;;;11.90;97.30;;;;;;6205514;28;20054;-81
2024/03/22 12:11:57;;;;;;;12.43;3.08;;;11.80;99.90;;;;;;6182936;28;20089;-81
2024/03/22 12:14:58;;;;;;;14.68;3.10;;;11.70;99.90;;;;;;6200442;28;20066;-80
2024/03/22 12:17:58;;;;;;;12.38;3.03;;;11.60;99.90;;;;;;6182446;28;20050;-80
2024/03/22 12:20:59;;;;;;;13.88;3.10;;;11.60;99.90;;;;;;6206252;28;20065;-81
2024/03/22 12:24:00;;;;;;;13.60;3.33;;;11.60;99.90;;;;;;6182827;28;20058;-81
2024/03/22 12:27:01;;;;;;;15.25;3.13;;;11.70;99.90;;;;;;6205691;28;20089;-81
2024/03/22 12:30:02;;;;;;;17.85;3.58;;;11.70;99.90;;;;;;6160680;28;20387;-81
2024/03/22 12:33:03;;;;;;;15.98;3.35;;;11.70;99.90;;;;;;6205332;28;20144;-82
2024/03/22 12:36:04;;;;;;;13.65;3.40;;;11.60;99.90;;;;;;6183118;28;20138;-82
2024/03/22 12:39:05;;;;;;;12.93;3.25;;;11.60;99.90;;;;;;6189617;28;20058;-86
2024/03/22 12:42:06;;;;;;;15.30;3.67;;;11.60;99.90;;;;;;6168540;28;20054;-83
2024/03/22 12:45:07;;;;;;;19.35;4.60;;;11.70;99.90;;;;;;6195157;28;20096;-81
2024/03/22 12:48:08;;;;;;;19.10;3.53;;;11.70;99.90;;;;;;6183214;28;20050;-82
2024/03/22 12:51:08;;;;;;;12.40;2.83;;;11.80;99.90;;;;;;6165729;28;20053;-82
2024/03/22 12:54:09;;;;;;;16.15;3.25;;;11.70;99.90;;;;;;6157656;28;20055;-82
2024/03/22 12:57:10;;;;;;;15.25;3.58;;;11.80;99.90;;;;;;6188144;28;20082;-82
2024/03/22 13:00:18;;;;;;;17.25;3.75;;;11.90;99.90;;;;;;6176419;28;20475;-82
2024/03/22 13:03:18;;;;;;;12.50;2.80;;;12.10;99.90;;;;;;6182436;28;20046;-83
2024/03/22 13:06:19;;;;;;;14.07;3.10;;;12.20;99.90;;;;;;6158366;28;20050;-81
2024/03/22 13:09:21;;;;;;;16.23;3.33;;;12.20;99.90;;;;;;6165129;28;20056;-80
2024/03/22 13:12:22;;;;;;;12.85;2.90;;;12.20;99.90;;;;;;6191396;28;20156;-81
2024/03/22 13:15:23;;;;;;;13.38;2.97;;;12.40;99.90;;;;;;6176695;28;20177;-80
2024/03/22 13:18:24;;;;;;;14.30;3.63;;;12.40;99.90;;;;;;6209046;28;20050;-87
2024/03/22 13:21:24;;;;;;;12.23;2.80;;;12.50;99.90;;;;;;6187072;28;20051;-81
2024/03/22 13:24:25;;;;;;;13.23;2.80;;;12.60;99.90;;;;;;6192974;28;20593;-83
2024/03/22 13:27:26;;;;;;;14.05;3.30;;;12.60;99.90;;;;;;6170118;28;20089;-83
2024/03/22 13:30:27;;;;;;;14.52;3.08;;;12.70;99.10;;;;;;6203646;28;20050;-87
2024/03/22 13:33:28;;;;;;;11.95;2.90;;;12.60;99.90;;;;;;6170129;28;20097;-80
2024/03/22 13:36:32;;;;;;;13.90;2.85;;;12.70;99.90;;;;;;6209626;28;20065;-81
2024/03/22 13:39:33;;;;;;;12.75;3.30;;;12.80;99.30;;;;;;6185779;28;20060;-81
2024/03/22 13:42:33;;;;;;;18.42;3.35;;;12.90;99.50;;;;;;6192445;28;20054;-81
2024/03/22 13:45:34;;;;;;;14.07;2.90;;;12.80;97.90;;;;;;6169982;28;20050;-81
2024/03/22 13:48:35;;;;;;;16.83;3.40;;;12.70;99.90;;;;;;6192592;28;20128;-81
2024/03/22 13:51:36;;;;;;;18.35;3.60;;;12.70;97.60;;;;;;6185896;28;20092;-80
2024/03/22 13:54:37;;;;;;;15.77;3.50;;;12.60;96.70;;;;;;6208119;28;20062;-81
2024/03/22 13:57:38;;;;;;;16.25;3.88;;;12.60;99.30;;;;;;6186221;28;20489;-80
2024/03/22 14:00:38;;;;;;;19.52;3.72;;;12.60;99.40;;;;;;6186447;28;20136;-81
2024/03/22 14:03:39;;;;;;;20.88;3.75;;;12.60;99.90;;;;;;6185613;28;20042;-81
2024/03/22 14:06:40;;;;;;;16.42;3.85;;;12.70;99.90;;;;;;6192905;28;20155;-81
2024/03/22 14:09:43;;;;;;;15.20;3.25;;;12.80;99.30;;;;;;6194361;28;20405;-81
2024/03/22 14:12:43;;;;;;;14.60;3.20;;;12.80;99.90;;;;;;6185207;28;20108;-81
2024/03/22 14:15:44;;;;;;;13.25;3.00;;;12.70;94.80;;;;;;6181818;28;20098;-81
2024/03/22 14:18:45;;;;;;;10.82;2.88;;;12.60;95.40;;;;;;6184681;28;20058;-79
2024/03/22 14:21:48;;;;;;;12.02;2.95;;;12.60;94.40;;;;;;6208184;28;20061;-79
2024/03/22 14:24:49;;;;;;;14.95;3.20;;;12.60;96.90;;;;;;6184399;28;20050;-79
2024/03/22 14:27:50;;;;;;;13.00;3.33;;;12.70;95.50;;;;;;6206221;28;20050;-80
2024/03/22 14:30:51;;;;;;;12.90;3.08;;;12.70;93.40;;;;;;6173624;28;20042;-80
2024/03/22 14:33:51;;;;;;;17.42;3.63;;;12.70;83.30;;;;;;6159304;28;20050;-80
2024/03/22 14:36:55;;;;;;;15.15;3.40;;;12.70;87.70;;;;;;6207447;28;20049;-80
2024/03/22 14:39:56;;;;;;;12.63;3.28;;;12.70;74.20;;;;;;6168077;28;20058;-80
2024/03/22 14:42:56;;;;;;;15.77;2.72;;;12.70;60.70;;;;;;6206081;28;20366;-81
2024/03/22 14:45:57;;;;;;;13.15;3.10;;;12.60;17.00;;;;;;6178727;28;20061;-80
2024/03/22 14:48:59;;;;;;;17.63;3.30;;;12.40;28.00;;;;;;6159115;28;20066;-80
2024/03/22 14:52:00;;;;;;;13.65;2.90;;;12.40;15.00;;;;;;6206136;28;20053;-81
2024/03/22 14:55:00;;;;;;;17.13;3.33;;;12.20;1.20;;;;;;6183658;28;20109;-80
2024/03/22 14:58:01;;;;;;;17.58;3.08;;;12.20;8.60;;;;;;6189662;28;20054;-80
2024/03/22 15:01:02;;;;;;;15.85;3.42;;;12.20;9.70;;;;;;6156717;28;20137;-79
2024/03/22 15:04:02;;;;;;;15.07;3.35;;;12.20;1.00;;;;;;6157740;28;20047;-79
2024/03/22 15:07:03;;;;;;;15.23;3.20;;;12.20;12.60;;;;;;6205253;28;20054;-79
2024/03/22 15:10:04;;;;;;;18.33;3.42;;;12.20;4.90;;;;;;6191301;28;20421;-79
2024/03/22 15:13:06;;;;;;;14.25;3.03;;;12.20;1.00;;;;;;6168013;28;20076;-79
2024/03/22 15:16:07;;;;;;;15.05;3.17;;;12.30;1.00;;;;;;6185543;28;20050;-80
2024/03/22 15:19:07;;;;;;;16.00;3.25;;;12.30;1.00;;;;;;6158415;28;20109;-81
2024/03/22 15:22:08;;;;;;;16.92;3.33;;;12.40;1.00;;;;;;6206032;28;20050;-80
2024/03/22 15:25:09;;;;;;;16.25;3.05;;;12.50;1.00;;;;;;6182619;28;20069;-81
2024/03/22 15:28:11;;;;;;;16.17;2.60;;;12.50;1.00;;;;;;6186946;28;20054;-83
2024/03/22 15:31:12;;;;;;;13.52;2.92;;;12.50;1.00;;;;;;6161585;28;20065;-82